Time;durP1;ratioP1;P1;durP2;ratioP2;P2;SDS_P1;SDS_P2;PMS_P1;PMS_P2;Temp;Humidity;BMP_temperature;BMP_pressure;BME280_temperature;BME280_humidity;BME280_pressure;Samples;Min_cycle;Max_cycle;Signal;HPM_P1;HPM_P2
2022/09/03 00:00:24;;;;;;;7.25;4.90;;;;;;;16.97;75.90;94770.13;5153555;27;20602;-78
2022/09/03 00:03:15;;;;;;;8.68;4.75;;;;;;;17.01;75.98;94780.28;5136434;27;20085;-78
2022/09/03 00:05:45;;;;;;;7.15;4.80;;;;;;;16.84;75.63;94772.44;5112260;28;20044;-78
2022/09/03 00:08:31;;;;;;;8.52;5.07;;;;;;;17.02;76.63;94787.16;5094924;28;20548;-78
2022/09/03 00:11:12;;;;;;;8.00;4.68;;;;;;;16.96;75.96;94786.84;5112237;27;20035;-78
2022/09/03 00:14:27;;;;;;;6.25;4.80;;;;;;;16.97;73.90;94791.13;5112219;28;20019;-78
2022/09/03 00:16:58;;;;;;;7.10;4.47;;;;;;;16.84;72.84;94761.94;5109527;28;20520;-78
2022/09/03 00:19:27;;;;;;;6.28;5.07;;;;;;;17.00;73.98;94794.41;5095274;28;20032;-78
2022/09/03 00:21:59;;;;;;;8.43;5.13;;;;;;;17.05;73.85;94798.16;5094894;28;20468;-78
2022/09/03 00:24:27;;;;;;;5.82;4.70;;;;;;;17.03;72.55;94783.56;5094870;28;20093;-78
2022/09/03 00:26:54;;;;;;;6.25;4.03;;;;;;;16.91;72.63;94773.41;5094711;28;20028;-78
2022/09/03 00:29:24;;;;;;;7.47;4.82;;;;;;;16.98;73.41;94784.88;5078111;28;20042;-78
2022/09/03 00:31:52;;;;;;;5.93;4.53;;;;;;;17.06;73.44;94789.28;5111756;28;20295;-78
2022/09/03 00:34:49;;;;;;;7.63;4.45;;;;;;;16.94;72.69;94767.84;5094786;28;20444;-78
2022/09/03 00:37:15;;;;;;;7.30;4.80;;;;;;;16.88;73.22;94788.66;5109466;28;20059;-78
2022/09/03 00:39:41;;;;;;;7.72;4.65;;;;;;;16.94;73.01;94788.00;5111281;28;20468;-78
2022/09/03 00:42:12;;;;;;;5.65;4.60;;;;;;;16.94;73.34;94780.97;5077413;28;20401;-78
2022/09/03 00:44:47;;;;;;;7.15;4.50;;;;;;;16.85;71.73;94784.56;5112957;28;20048;-78
2022/09/03 00:47:24;;;;;;;5.78;4.50;;;;;;;16.87;72.40;94785.22;5111313;28;20117;-78
2022/09/03 00:50:17;;;;;;;7.07;4.75;;;;;;;16.94;72.15;94780.16;5111489;28;20042;-78
2022/09/03 00:53:04;;;;;;;5.57;4.38;;;;;;;16.84;73.32;94769.81;5112404;28;20039;-78
2022/09/03 00:55:47;;;;;;;8.15;4.22;;;;;;;16.92;74.42;94782.91;5111387;28;20429;-78
2022/09/03 00:58:13;;;;;;;6.07;4.82;;;;;;;16.93;74.02;94789.78;5112151;28;20031;-78
2022/09/03 01:00:41;;;;;;;7.05;4.65;;;;;;;16.76;74.58;94759.31;5110956;28;20020;-78
2022/09/03 01:03:30;;;;;;;8.20;4.90;;;;;;;16.99;74.73;94793.56;5114043;27;20042;-78
2022/09/03 01:06:02;;;;;;;7.13;4.72;;;;;;;16.98;74.07;94790.13;5134989;27;20280;-78
2022/09/03 01:08:53;;;;;;;6.20;4.43;;;;;;;16.98;74.30;94786.69;5152101;27;20103;-78
2022/09/03 01:11:55;;;;;;;8.60;5.40;;;;;;;16.78;73.32;94760.00;5153344;27;20026;-78
2022/09/03 01:14:39;;;;;;;5.60;4.03;;;;;;;16.92;73.38;94776.84;5152160;27;20039;-78
2022/09/03 01:17:33;;;;;;;6.60;4.55;;;;;;;16.89;73.56;94775.38;5151803;27;20031;-78
2022/09/03 01:20:24;;;;;;;7.78;4.78;;;;;;;16.90;74.64;94784.88;5137775;27;20496;-78
2022/09/03 01:23:26;;;;;;;6.72;4.95;;;;;;;16.81;73.76;94767.53;5134918;27;20141;-78
2022/09/03 01:26:21;;;;;;;5.97;5.03;;;;;;;16.80;72.90;94757.19;5136974;27;20073;-79
2022/09/03 01:29:00;;;;;;;6.97;4.82;;;;;;;16.84;72.90;94775.06;5152003;27;20408;-78
2022/09/03 01:32:06;;;;;;;5.72;4.63;;;;;;;16.85;72.56;94781.94;5134428;27;20027;-78
2022/09/03 01:34:50;;;;;;;6.25;4.70;;;;;;;16.82;71.78;94792.75;5109426;27;20081;-78
2022/09/03 01:37:18;;;;;;;6.97;4.90;;;;;;;16.91;71.53;94796.19;5151522;27;20107;-79
2022/09/03 01:39:51;;;;;;;7.88;5.28;;;;;;;16.80;72.90;94805.25;5151782;27;20420;-78
2022/09/03 01:42:38;;;;;;;6.25;5.05;;;;;;;16.80;72.11;94805.25;5134008;27;20064;-78
2022/09/03 01:45:26;;;;;;;7.47;5.40;;;;;;;16.78;71.80;94809.81;5135351;27;20030;-79
2022/09/03 01:48:02;;;;;;;7.80;5.68;;;;;;;16.67;71.28;94810.94;5134858;27;20043;-78
2022/09/03 01:50:49;;;;;;;6.60;5.07;;;;;;;16.66;71.46;94804.06;5151510;27;20076;-79
2022/09/03 01:53:15;;;;;;;7.57;5.20;;;;;;;16.75;70.93;94803.06;5151418;27;20031;-79
2022/09/03 01:55:56;;;;;;;5.85;5.13;;;;;;;16.65;71.59;94796.34;5151752;27;20033;-79
2022/09/03 01:58:41;;;;;;;8.65;5.07;;;;;;;16.62;71.76;94799.31;5151542;27;20035;-78
2022/09/03 02:01:21;;;;;;;5.53;4.30;;;;;;;16.59;71.34;94803.06;5151263;27;20106;-78
2022/09/03 02:03:46;;;;;;;7.75;5.13;;;;;;;16.69;70.76;94805.56;5127247;28;20027;-78
2022/09/03 02:06:12;;;;;;;6.38;5.00;;;;;;;16.80;70.79;94805.25;5130599;28;20027;-78
2022/09/03 02:08:38;;;;;;;7.70;5.15;;;;;;;16.68;71.61;94801.28;5113444;28;20035;-78
2022/09/03 02:11:07;;;;;;;6.43;5.28;;;;;;;16.71;71.72;94800.94;5113566;28;20034;-78
2022/09/03 02:14:04;;;;;;;6.43;4.37;;;;;;;16.71;70.52;94798.31;5096996;28;20031;-78
2022/09/03 02:16:30;;;;;;;5.45;4.57;;;;;;;16.63;70.73;94793.06;5101137;28;20492;-79
2022/09/03 02:19:10;;;;;;;7.13;4.78;;;;;;;16.56;71.40;94799.97;5114448;27;20432;-78
2022/09/03 02:21:38;;;;;;;7.50;5.03;;;;;;;16.47;72.98;94793.91;5101108;27;20035;-79
2022/09/03 02:24:04;;;;;;;9.52;5.25;;;;;;;16.52;73.37;94813.41;5117679;27;20059;-78
2022/09/03 02:26:29;;;;;;;12.73;5.47;;;;;;;16.54;73.32;94816.66;5117604;27;20023;-79
2022/09/03 02:28:55;;;;;;;6.80;5.00;;;;;;;16.57;73.50;94819.97;5100491;27;20031;-79
2022/09/03 02:31:20;;;;;;;9.80;5.03;;;;;;;16.62;72.96;94812.41;5134616;27;20019;-79
2022/09/03 02:33:46;;;;;;;6.97;4.88;;;;;;;16.58;73.54;94816.38;5134638;27;20028;-78
2022/09/03 02:36:13;;;;;;;9.13;4.53;;;;;;;16.50;72.68;94799.63;5100468;27;20062;-78
2022/09/03 02:38:42;;;;;;;6.90;4.85;;;;;;;16.58;72.34;94811.13;5117401;27;20128;-78
2022/09/03 02:41:08;;;;;;;6.25;4.78;;;;;;;16.44;73.54;94795.06;5100343;27;20031;-78
2022/09/03 02:43:38;;;;;;;5.90;4.60;;;;;;;16.41;71.66;94805.88;5100102;27;20043;-78
2022/09/03 02:46:05;;;;;;;5.55;4.90;;;;;;;16.54;72.13;94818.47;5100378;27;20031;-78
2022/09/03 02:48:31;;;;;;;6.32;4.75;;;;;;;16.50;73.11;94806.69;5134201;27;20063;-78
2022/09/03 02:50:57;;;;;;;5.97;4.82;;;;;;;16.61;72.78;94822.09;5100046;27;20031;-78
2022/09/03 02:53:23;;;;;;;7.10;4.82;;;;;;;16.70;70.45;94822.91;5116978;27;20110;-78
2022/09/03 02:55:48;;;;;;;8.25;5.03;;;;;;;16.60;72.29;94815.19;5135285;27;20053;-78
2022/09/03 02:58:14;;;;;;;7.03;4.82;;;;;;;16.60;72.60;94817.00;5116799;27;20184;-78
2022/09/03 03:00:39;;;;;;;6.07;5.20;;;;;;;16.49;72.76;94811.13;5099845;27;20038;-78
2022/09/03 03:03:05;;;;;;;7.65;5.20;;;;;;;16.56;72.67;94828.81;5135013;27;20039;-78
2022/09/03 03:05:43;;;;;;;6.18;4.78;;;;;;;16.59;71.77;94836.34;5120176;27;20034;-78
2022/09/03 03:08:11;;;;;;;6.30;4.63;;;;;;;16.45;72.34;94833.38;5138281;27;20038;-79
2022/09/03 03:10:36;;;;;;;7.18;5.05;;;;;;;16.46;72.56;94829.78;5137811;27;20303;-78
2022/09/03 03:13:02;;;;;;;14.82;5.05;;;;;;;16.53;71.83;94829.97;5154424;27;20038;-78
2022/09/03 03:15:28;;;;;;;5.82;4.75;;;;;;;16.42;72.32;94827.66;5120038;27;20049;-78
2022/09/03 03:17:56;;;;;;;7.28;5.05;;;;;;;16.29;72.91;94818.44;5154395;27;20031;-78
2022/09/03 03:20:22;;;;;;;7.30;5.25;;;;;;;16.37;72.91;94827.31;5136917;27;20018;-78
2022/09/03 03:22:47;;;;;;;8.25;5.10;;;;;;;16.25;73.34;94827.63;5136961;27;20027;-78
2022/09/03 03:25:13;;;;;;;5.75;5.03;;;;;;;16.27;74.06;94822.25;5154060;27;20030;-78
2022/09/03 03:27:41;;;;;;;8.85;5.85;;;;;;;16.25;73.34;94822.38;5154074;27;20424;-78
2022/09/03 03:30:09;;;;;;;6.07;4.63;;;;;;;16.30;73.87;94820.09;5119527;27;20559;-78
2022/09/03 03:32:37;;;;;;;6.57;5.50;;;;;;;16.31;73.67;94816.50;5153501;27;20027;-78
2022/09/03 03:35:04;;;;;;;6.20;5.45;;;;;;;16.36;73.44;94821.25;5137037;27;20038;-79
2022/09/03 03:37:30;;;;;;;8.13;5.30;;;;;;;16.38;72.71;94815.84;5136760;27;20026;-78
2022/09/03 03:39:55;;;;;;;8.30;5.70;;;;;;;16.31;72.91;94816.50;5136756;27;20114;-78
2022/09/03 03:42:21;;;;;;;6.60;5.30;;;;;;;16.42;72.87;94831.09;5153823;27;20065;-78
2022/09/03 03:44:46;;;;;;;8.20;5.75;;;;;;;16.41;73.22;94818.97;5136700;27;20423;-78
2022/09/03 03:47:11;;;;;;;7.22;5.25;;;;;;;16.45;73.61;94830.75;5136431;27;20034;-79
2022/09/03 03:49:37;;;;;;;7.25;5.25;;;;;;;16.48;71.79;94829.63;5136634;27;20472;-78
2022/09/03 03:52:03;;;;;;;5.93;5.25;;;;;;;16.38;71.09;94816.69;5153663;27;20433;-79
2022/09/03 03:54:29;;;;;;;6.78;5.40;;;;;;;16.42;71.67;94822.41;5153966;27;20033;-79
2022/09/03 03:56:55;;;;;;;6.32;5.25;;;;;;;16.43;71.48;94824.03;5153635;27;20038;-79
2022/09/03 03:59:20;;;;;;;7.10;5.13;;;;;;;16.44;72.84;94813.41;5153475;27;20027;-78
2022/09/03 04:01:49;;;;;;;6.50;5.25;;;;;;;16.37;73.00;94801.91;5153664;27;20039;-79
2022/09/03 04:04:14;;;;;;;9.73;5.45;;;;;;;16.47;72.75;94826.19;5142518;27;20027;-79
2022/09/03 04:06:40;;;;;;;6.93;5.68;;;;;;;16.54;72.91;94831.59;5115895;27;20091;-77
2022/09/03 04:09:05;;;;;;;7.75;5.55;;;;;;;16.58;72.83;94835.53;5132699;27;20038;-76
2022/09/03 04:11:30;;;;;;;7.22;5.30;;;;;;;16.56;72.59;94826.19;5132651;27;20054;-76
2022/09/03 04:13:56;;;;;;;6.40;5.03;;;;;;;16.41;73.04;94805.88;5132352;27;20038;-77
2022/09/03 04:16:23;;;;;;;7.43;5.63;;;;;;;16.57;73.24;94830.44;5115513;27;20035;-76
2022/09/03 04:18:49;;;;;;;5.97;4.90;;;;;;;16.57;72.86;94830.44;5115521;27;20027;-76
2022/09/03 04:21:16;;;;;;;7.43;5.00;;;;;;;16.59;73.55;94834.53;5133620;27;20034;-75
2022/09/03 04:23:43;;;;;;;8.63;5.68;;;;;;;16.61;73.20;94831.78;5115175;27;20034;-76
2022/09/03 04:26:10;;;;;;;8.80;5.03;;;;;;;16.58;72.92;94821.63;5132220;27;20076;-76
2022/09/03 04:28:36;;;;;;;9.57;5.07;;;;;;;16.53;72.53;94815.03;5098208;27;20488;-78
2022/09/03 04:31:02;;;;;;;6.40;5.25;;;;;;;16.63;73.23;94829.78;5114724;27;20337;-78
2022/09/03 04:33:29;;;;;;;6.72;5.40;;;;;;;16.64;73.66;94823.56;5094302;28;20039;-78
2022/09/03 04:36:09;;;;;;;7.72;5.13;;;;;;;16.58;73.72;94832.91;5094728;28;20024;-77
2022/09/03 04:38:35;;;;;;;7.88;6.03;;;;;;;16.69;74.40;94839.66;5126389;27;20035;-77
2022/09/03 04:41:00;;;;;;;6.90;5.70;;;;;;;16.58;74.19;94821.63;5094646;28;20031;-78
2022/09/03 04:43:27;;;;;;;8.52;5.72;;;;;;;16.62;73.77;94828.97;5110892;28;20044;-77
2022/09/03 04:45:59;;;;;;;7.28;5.07;;;;;;;16.67;73.56;94841.59;5111242;28;20031;-77
2022/09/03 04:48:25;;;;;;;6.22;5.20;;;;;;;16.77;72.92;94857.19;5094216;28;20028;-77
2022/09/03 04:50:51;;;;;;;6.93;5.68;;;;;;;16.71;72.08;94851.59;5111164;28;20119;-78
2022/09/03 04:53:17;;;;;;;7.85;5.93;;;;;;;16.73;72.52;94841.75;5094403;28;20203;-77
2022/09/03 04:55:42;;;;;;;7.90;5.93;;;;;;;16.80;72.21;94862.94;5094522;28;20031;-77
2022/09/03 04:58:08;;;;;;;6.72;5.47;;;;;;;16.87;72.24;94869.16;5077180;28;20035;-78
2022/09/03 05:00:35;;;;;;;9.43;5.70;;;;;;;16.91;72.46;94873.13;5100373;27;20500;-77
2022/09/03 05:03:01;;;;;;;6.38;5.40;;;;;;;16.97;72.54;94880.31;5106369;27;20046;-77
2022/09/03 05:05:27;;;;;;;8.30;5.57;;;;;;;16.94;73.34;94875.41;5135134;27;20484;-77
2022/09/03 05:07:56;;;;;;;8.55;5.50;;;;;;;16.85;73.23;94867.69;5115844;27;20031;-78
2022/09/03 05:10:22;;;;;;;6.88;5.70;;;;;;;17.02;72.44;94886.88;5126907;27;20469;-77
2022/09/03 05:13:00;;;;;;;7.22;5.78;;;;;;;16.88;71.27;94897.06;5131379;27;20031;-78
2022/09/03 05:15:26;;;;;;;7.70;5.53;;;;;;;16.78;70.63;94885.91;5129999;27;20019;-78
2022/09/03 05:17:55;;;;;;;9.38;5.30;;;;;;;16.82;70.22;94881.94;5122374;27;20062;-77
2022/09/03 05:20:21;;;;;;;6.05;4.95;;;;;;;16.74;70.63;94868.81;5097098;27;20501;-78
2022/09/03 05:22:47;;;;;;;7.72;5.38;;;;;;;16.79;70.61;94873.59;5133491;27;20030;-78
2022/09/03 05:25:12;;;;;;;7.70;5.25;;;;;;;16.86;69.64;94878.03;5134620;27;20110;-78
2022/09/03 05:27:38;;;;;;;7.18;5.40;;;;;;;16.80;70.94;94883.94;5152034;27;20014;-77
2022/09/03 05:30:03;;;;;;;6.35;4.90;;;;;;;16.84;70.00;94872.13;5134662;27;20026;-78
2022/09/03 05:32:30;;;;;;;6.13;4.68;;;;;;;16.80;69.74;94869.97;5134464;27;20018;-78
2022/09/03 05:34:55;;;;;;;6.00;4.45;;;;;;;16.93;69.82;94888.69;5133966;27;20031;-77
2022/09/03 05:37:22;;;;;;;5.82;4.75;;;;;;;16.96;70.11;94889.16;5113755;27;20023;-77
2022/09/03 05:39:47;;;;;;;8.25;4.75;;;;;;;16.98;69.33;94899.50;5114202;27;20476;-78
2022/09/03 05:42:13;;;;;;;8.63;5.00;;;;;;;17.00;69.94;94894.94;5113775;27;20035;-77
2022/09/03 05:44:39;;;;;;;6.53;4.85;;;;;;;16.91;69.10;94896.72;5113922;27;20386;-77
2022/09/03 05:47:05;;;;;;;4.97;4.47;;;;;;;16.98;68.77;94908.19;5113660;27;20031;-78
2022/09/03 05:49:30;;;;;;;5.50;4.35;;;;;;;17.03;68.74;94906.91;5129976;27;20027;-78
2022/09/03 05:51:56;;;;;;;6.22;4.90;;;;;;;17.05;69.40;94907.53;5097906;28;20038;-78
2022/09/03 05:54:21;;;;;;;7.55;5.32;;;;;;;17.05;69.97;94911.00;5110128;27;20028;-78
2022/09/03 05:56:47;;;;;;;6.05;5.03;;;;;;;16.89;68.63;94887.38;5088640;28;20076;-78
2022/09/03 05:59:13;;;;;;;5.97;4.65;;;;;;;17.02;69.08;94907.88;5110228;28;20046;-77
2022/09/03 06:01:40;;;;;;;5.50;4.78;;;;;;;17.00;69.39;94909.84;5096643;28;20035;-78
2022/09/03 06:04:09;;;;;;;4.75;4.05;;;;;;;16.93;68.62;94913.09;5093306;28;20447;-78
2022/09/03 06:06:36;;;;;;;7.22;4.20;;;;;;;16.91;69.05;94917.72;5127119;28;20111;-78
2022/09/03 06:09:12;;;;;;;5.18;4.53;;;;;;;16.94;68.61;94916.56;5093121;28;20089;-78
2022/09/03 06:11:38;;;;;;;5.97;4.93;;;;;;;17.06;68.52;94924.94;5093142;28;20023;-77
2022/09/03 06:14:06;;;;;;;6.65;4.43;;;;;;;17.04;68.66;94911.97;5109842;28;20031;-77
2022/09/03 06:16:33;;;;;;;5.05;4.50;;;;;;;17.11;68.35;94920.84;5109574;28;20027;-78
2022/09/03 06:18:59;;;;;;;6.45;4.93;;;;;;;17.09;68.10;94914.91;5124979;28;20043;-78
2022/09/03 06:21:24;;;;;;;5.38;4.15;;;;;;;17.18;67.72;94915.75;5108025;28;20027;-78
2022/09/03 06:23:50;;;;;;;7.53;4.38;;;;;;;17.10;67.48;94921.81;5090767;28;20036;-78
2022/09/03 06:26:16;;;;;;;5.10;4.60;;;;;;;17.15;67.32;94913.44;5107750;28;20654;-78
2022/09/03 06:28:44;;;;;;;6.38;4.80;;;;;;;17.17;67.19;94914.09;5107773;28;20039;-78
2022/09/03 06:31:11;;;;;;;5.75;4.75;;;;;;;17.12;67.41;94919.03;5107779;28;20485;-77
2022/09/03 06:33:37;;;;;;;5.35;4.60;;;;;;;17.26;67.63;94920.97;5091957;28;20063;-77
2022/09/03 06:36:06;;;;;;;6.25;4.72;;;;;;;17.29;67.77;94925.91;5108988;28;20032;-76
2022/09/03 06:38:35;;;;;;;7.13;4.88;;;;;;;17.42;67.79;94928.84;5109720;28;20297;-77
2022/09/03 06:41:03;;;;;;;6.32;5.25;;;;;;;17.41;66.86;94918.50;5110993;28;20027;-76
2022/09/03 06:43:34;;;;;;;7.03;5.15;;;;;;;17.48;66.61;94923.91;5109599;28;20047;-76
2022/09/03 06:46:01;;;;;;;5.88;4.60;;;;;;;17.63;66.68;94927.50;5109600;28;20027;-76
2022/09/03 06:48:27;;;;;;;5.93;4.75;;;;;;;17.71;65.80;94924.84;5092667;28;20043;-76
2022/09/03 06:50:55;;;;;;;5.32;4.63;;;;;;;17.67;66.06;94928.00;5109611;28;20020;-76
2022/09/03 06:53:25;;;;;;;8.27;4.68;;;;;;;17.72;65.68;94910.75;5109521;28;20042;-76
2022/09/03 06:55:59;;;;;;;6.70;4.80;;;;;;;17.80;65.43;94918.63;5109633;28;20112;-76
2022/09/03 06:58:28;;;;;;;5.80;4.82;;;;;;;17.91;65.85;94930.56;5109807;28;20042;-76
2022/09/03 07:00:53;;;;;;;5.40;4.68;;;;;;;17.99;64.35;94929.72;5109529;28;20030;-77
2022/09/03 07:03:19;;;;;;;6.03;4.63;;;;;;;17.94;64.48;94913.63;5109582;28;20040;-76
2022/09/03 07:05:46;;;;;;;7.50;4.82;;;;;;;18.08;64.76;94926.91;5111704;28;20035;-77
2022/09/03 07:08:11;;;;;;;5.72;4.75;;;;;;;18.11;63.99;94924.91;5113159;28;20499;-77
2022/09/03 07:10:37;;;;;;;5.63;4.95;;;;;;;18.10;64.00;94934.59;5113132;28;20023;-76
2022/09/03 07:13:05;;;;;;;5.80;4.93;;;;;;;18.11;64.31;94938.91;5113093;28;20028;-76
2022/09/03 07:15:31;;;;;;;5.97;4.90;;;;;;;18.07;64.26;94929.69;5096360;28;20058;-77
2022/09/03 07:17:57;;;;;;;6.25;5.18;;;;;;;18.13;64.07;94934.25;5130165;27;20038;-77
2022/09/03 07:20:22;;;;;;;6.40;5.50;;;;;;;18.15;64.68;94929.66;5113012;28;20439;-77
2022/09/03 07:22:48;;;;;;;6.90;5.68;;;;;;;18.26;63.66;94933.72;5114097;28;20080;-77
2022/09/03 07:25:14;;;;;;;5.90;4.68;;;;;;;18.41;63.96;94941.72;5129996;27;20405;-77
2022/09/03 07:27:39;;;;;;;6.05;4.72;;;;;;;18.49;63.32;94936.41;5112850;28;20478;-77
2022/09/03 07:30:08;;;;;;;6.07;4.93;;;;;;;18.41;62.95;94932.00;5112823;28;20032;-77
2022/09/03 07:32:35;;;;;;;6.50;4.90;;;;;;;18.52;62.69;94944.75;5112549;28;20022;-77
2022/09/03 07:35:01;;;;;;;7.85;5.72;;;;;;;18.67;63.54;94950.13;5113998;28;20027;-77
2022/09/03 07:37:26;;;;;;;5.85;4.75;;;;;;;18.67;62.38;94951.94;5113863;28;20455;-76
2022/09/03 07:39:52;;;;;;;5.85;4.93;;;;;;;18.77;62.60;94951.75;5112891;28;20088;-77
2022/09/03 07:42:19;;;;;;;5.88;4.93;;;;;;;18.69;62.23;94945.53;5129443;27;20019;-76
2022/09/03 07:44:45;;;;;;;7.30;4.95;;;;;;;18.78;61.94;94951.56;5112812;28;20100;-77
2022/09/03 07:47:10;;;;;;;5.93;4.65;;;;;;;18.83;61.59;94961.56;5112358;28;20505;-77
2022/09/03 07:49:36;;;;;;;6.05;4.60;;;;;;;18.89;61.93;94960.88;5112708;28;20032;-76
2022/09/03 07:52:01;;;;;;;5.20;4.70;;;;;;;18.89;61.53;94955.63;5095349;28;20023;-77
2022/09/03 07:54:27;;;;;;;5.75;4.43;;;;;;;18.94;61.36;94969.06;5112620;28;20032;-77
2022/09/03 07:56:53;;;;;;;6.47;4.70;;;;;;;19.04;61.42;94963.56;5095377;28;20031;-77
2022/09/03 07:59:19;;;;;;;5.78;4.80;;;;;;;19.02;60.96;94960.28;5112503;28;20043;-76
2022/09/03 08:01:44;;;;;;;5.18;4.57;;;;;;;19.06;61.04;94967.69;5112313;28;20016;-76
2022/09/03 08:04:10;;;;;;;5.22;4.70;;;;;;;19.03;61.36;94951.38;5112333;28;20471;-76
2022/09/03 08:06:36;;;;;;;6.03;4.97;;;;;;;19.04;60.80;94959.13;5129247;27;20031;-77
2022/09/03 08:09:03;;;;;;;5.38;4.63;;;;;;;19.11;60.61;94962.72;5112004;28;20036;-77
2022/09/03 08:11:30;;;;;;;7.22;5.15;;;;;;;19.12;61.48;94960.88;5112200;28;20028;-77
2022/09/03 08:14:01;;;;;;;5.97;4.90;;;;;;;19.20;60.81;94959.00;5112182;28;20036;-77
2022/09/03 08:16:31;;;;;;;5.88;4.68;;;;;;;19.31;60.86;94967.50;5128564;27;20496;-77
2022/09/03 08:18:57;;;;;;;6.60;4.90;;;;;;;19.35;60.41;94966.13;5112213;28;20032;-77
2022/09/03 08:21:22;;;;;;;6.47;4.85;;;;;;;19.34;60.90;94962.69;5129084;27;20477;-77
2022/09/03 08:23:50;;;;;;;6.28;4.88;;;;;;;19.45;59.73;94971.97;5094838;28;20491;-77
2022/09/03 08:26:16;;;;;;;7.07;5.13;;;;;;;19.42;59.88;94962.63;5111927;28;20024;-77
2022/09/03 08:28:42;;;;;;;6.70;4.32;;;;;;;19.38;59.41;94956.06;5111893;28;20072;-77
2022/09/03 08:31:26;;;;;;;5.30;4.70;;;;;;;19.47;59.40;94958.63;5111803;28;20447;-77
2022/09/03 08:33:53;;;;;;;5.30;4.38;;;;;;;19.69;59.07;94968.31;5128872;27;20028;-77
2022/09/03 08:36:21;;;;;;;5.93;4.65;;;;;;;19.78;59.10;94958.50;5128648;27;20509;-77
2022/09/03 08:38:47;;;;;;;5.50;4.60;;;;;;;19.86;58.88;94963.72;5111528;28;20091;-77
2022/09/03 08:41:36;;;;;;;4.90;4.40;;;;;;;19.88;57.71;94951.16;5112737;28;20031;-77
2022/09/03 08:44:04;;;;;;;5.53;4.70;;;;;;;20.04;58.73;94951.00;5125710;27;20474;-77
2022/09/03 08:46:42;;;;;;;7.68;4.40;;;;;;;20.33;58.30;94949.34;5111267;28;20632;-77
2022/09/03 08:49:10;;;;;;;4.00;3.60;;;;;;;20.55;56.74;94941.53;5128549;27;20084;-77
2022/09/03 08:51:36;;;;;;;4.60;4.13;;;;;;;20.67;56.39;94937.38;5111138;28;20501;-77
2022/09/03 08:54:02;;;;;;;4.80;4.28;;;;;;;20.82;55.68;94940.81;5111249;28;20520;-77
2022/09/03 08:56:28;;;;;;;5.18;4.30;;;;;;;20.86;55.30;94936.78;5111236;28;20055;-77
2022/09/03 08:58:54;;;;;;;4.97;4.38;;;;;;;20.97;54.70;94946.84;5111117;28;20035;-77
2022/09/03 09:01:30;;;;;;;5.55;4.50;;;;;;;21.02;56.56;94958.69;5111044;28;20501;-77
2022/09/03 09:04:11;;;;;;;5.80;4.80;;;;;;;21.16;55.97;94955.97;5110992;28;20031;-77
2022/09/03 09:06:42;;;;;;;;;;;;;;;21.15;54.37;94958.81;5112604;28;20024;-77
2022/09/03 09:09:30;;;;;;;5.35;4.50;;;;;;;21.20;54.75;94956.41;5112370;28;20433;-77
2022/09/03 09:12:16;;;;;;;5.10;4.45;;;;;;;21.14;54.90;94957.97;5127861;27;20019;-77
2022/09/03 09:15:06;;;;;;;5.28;4.32;;;;;;;21.24;55.23;94959.50;5110981;28;20084;-77
2022/09/03 09:17:40;;;;;;;5.35;4.35;;;;;;;21.27;54.88;94959.94;5111784;28;20076;-77
2022/09/03 09:20:28;;;;;;;6.97;4.80;;;;;;;21.28;54.77;94961.56;5110605;27;20031;-77
2022/09/03 09:23:09;;;;;;;5.50;4.53;;;;;;;21.31;53.89;94963.00;5111783;28;20122;-77
2022/09/03 09:25:41;;;;;;;5.35;4.70;;;;;;;21.23;53.69;94963.97;5093550;28;20027;-77
2022/09/03 09:28:16;;;;;;;5.35;4.82;;;;;;;21.00;54.22;94965.97;5110038;28;20455;-77
2022/09/03 09:30:42;;;;;;;5.80;4.60;;;;;;;20.94;54.80;94963.06;5110373;28;20062;-76
2022/09/03 09:33:07;;;;;;;8.77;6.60;;;;;;;21.00;55.83;94971.25;5110374;28;20433;-76
2022/09/03 09:35:33;;;;;;;6.80;5.72;;;;;;;20.99;55.41;94965.16;5110497;28;20028;-77
2022/09/03 09:37:59;;;;;;;7.45;5.68;;;;;;;20.95;55.75;94959.44;5111598;28;20028;-77
2022/09/03 09:40:32;;;;;;;5.93;5.32;;;;;;;21.01;56.28;94962.34;5110403;28;20035;-76
2022/09/03 09:43:09;;;;;;;5.63;5.05;;;;;;;20.89;54.67;94959.34;5109986;28;20054;-76
2022/09/03 09:45:55;;;;;;;6.18;5.22;;;;;;;20.92;54.68;94954.53;5093421;28;20468;-77
2022/09/03 09:48:29;;;;;;;6.63;5.25;;;;;;;20.93;55.69;94948.25;5124159;27;20132;-77
2022/09/03 09:51:18;;;;;;;6.50;5.80;;;;;;;21.12;56.48;94964.47;5110344;28;20027;-77
2022/09/03 09:53:43;;;;;;;6.18;5.20;;;;;;;21.16;55.25;94963.91;5127425;27;20035;-77
2022/09/03 09:56:22;;;;;;;5.82;5.32;;;;;;;21.24;55.73;94962.97;5111514;28;20032;-77
2022/09/03 09:58:48;;;;;;;10.45;8.02;;;;;;;21.42;55.22;94973.94;5093319;28;20028;-77
2022/09/03 10:01:31;;;;;;;6.68;5.80;;;;;;;21.51;55.54;94973.81;5093201;28;20504;-77
2022/09/03 10:03:58;;;;;;;7.93;5.90;;;;;;;21.64;54.39;94981.81;5110272;28;20032;-77
2022/09/03 10:09:17;;;;;;;6.57;5.53;;;;;;;21.63;54.40;94973.09;5110427;28;20039;-77
2022/09/03 10:12:18;;;;;;;6.05;5.53;;;;;;;21.64;53.79;94971.25;5111351;28;20386;-76
2022/09/03 10:15:02;;;;;;;5.60;5.10;;;;;;;21.77;52.94;94965.25;5093054;28;20096;-76
2022/09/03 10:17:43;;;;;;;6.05;5.22;;;;;;;21.84;54.61;94969.59;5109888;28;20028;-77
2022/09/03 10:20:29;;;;;;;;;;;;;;;21.82;54.04;94966.31;5112005;28;20122;-78
2022/09/03 10:23:03;;;;;;;6.50;5.60;;;;;;;21.85;54.24;94960.63;5109998;28;20377;-78
2022/09/03 10:25:50;;;;;;;6.35;5.25;;;;;;;21.96;53.58;94966.41;5113630;28;20381;-78
2022/09/03 10:28:16;;;;;;;6.82;5.88;;;;;;;21.98;52.66;94969.66;5117770;27;20175;-78
2022/09/03 10:30:57;;;;;;;6.38;5.70;;;;;;;21.99;53.40;94955.44;5109767;28;20458;-78
2022/09/03 10:33:26;;;;;;;6.80;5.57;;;;;;;21.98;53.15;94952.00;5115095;27;20035;-78
2022/09/03 10:35:56;;;;;;;6.47;5.82;;;;;;;21.88;53.03;94954.16;5151181;27;20271;-78
2022/09/03 10:38:43;;;;;;;7.13;6.17;;;;;;;21.88;53.35;94958.63;5134383;27;20027;-78
2022/09/03 10:41:19;;;;;;;5.50;5.00;;;;;;;21.89;52.35;94937.25;5136595;27;20027;-78
2022/09/03 10:43:44;;;;;;;9.05;4.97;;;;;;;22.11;53.15;94953.06;5154932;27;20039;-78
2022/09/03 10:46:12;;;;;;;5.88;5.35;;;;;;;22.08;53.00;94943.69;5141496;27;20039;-76
2022/09/03 10:48:41;;;;;;;5.90;5.30;;;;;;;22.04;53.28;94953.84;5134740;27;20034;-76
2022/09/03 10:51:17;;;;;;;5.75;5.05;;;;;;;22.12;53.27;94949.41;5135164;27;20467;-79
2022/09/03 10:54:12;;;;;;;7.57;4.90;;;;;;;22.32;52.56;94958.31;5134452;27;20507;-78
2022/09/03 10:56:50;;;;;;;5.75;5.15;;;;;;;22.37;53.22;94960.34;5106678;27;20042;-78
2022/09/03 10:59:26;;;;;;;5.85;5.15;;;;;;;22.37;52.21;94955.91;5135323;27;20164;-78
2022/09/03 11:02:10;;;;;;;5.78;4.90;;;;;;;22.49;53.65;94950.84;5135237;27;20038;-78
2022/09/03 11:04:53;;;;;;;7.20;6.38;;;;;;;22.62;53.77;94956.19;5135751;27;20038;-78
2022/09/03 11:07:24;;;;;;;6.03;5.25;;;;;;;22.67;51.89;94940.50;5133809;27;20504;-78
2022/09/03 11:10:25;;;;;;;6.82;5.03;;;;;;;22.86;51.62;94941.59;5134127;27;20046;-78
2022/09/03 11:12:57;;;;;;;5.95;5.30;;;;;;;22.85;52.55;94945.28;5127051;27;20047;-78
2022/09/03 11:15:24;;;;;;;5.60;4.82;;;;;;;22.92;51.06;94939.97;5114462;28;20023;-78
2022/09/03 11:18:19;;;;;;;5.82;5.10;;;;;;;22.96;50.11;94951.84;5096155;28;21515;-78
2022/09/03 11:20:44;;;;;;;6.63;4.88;;;;;;;22.96;49.55;94957.16;5095585;28;20089;-78
2022/09/03 11:23:12;;;;;;;8.85;5.38;;;;;;;22.93;50.78;94946.94;5112997;28;20417;-78
2022/09/03 11:25:43;;;;;;;6.25;4.82;;;;;;;22.85;51.30;94955.06;5112924;28;20490;-78
2022/09/03 11:28:18;;;;;;;6.00;5.40;;;;;;;22.87;50.96;94945.06;5096013;28;20115;-78
2022/09/03 11:31:12;;;;;;;6.20;5.32;;;;;;;22.90;51.93;94947.28;5114006;28;20028;-78
2022/09/03 11:33:40;;;;;;;5.47;4.75;;;;;;;22.96;50.11;94935.97;5129931;27;20484;-79
2022/09/03 11:36:06;;;;;;;5.63;4.93;;;;;;;23.05;51.52;94950.63;5097199;27;20039;-80
2022/09/03 11:38:31;;;;;;;6.28;4.95;;;;;;;23.00;49.76;94934.53;5115355;27;20470;-76
2022/09/03 11:41:13;;;;;;;7.20;4.80;;;;;;;22.96;50.47;94941.25;5131352;27;20489;-77
2022/09/03 11:43:38;;;;;;;6.90;4.32;;;;;;;23.08;51.18;94942.28;5115125;27;20042;-80
2022/09/03 11:46:26;;;;;;;5.47;4.65;;;;;;;23.13;49.73;94947.81;5103784;27;20110;-77
2022/09/03 11:49:12;;;;;;;5.45;4.22;;;;;;;23.25;49.79;94944.56;5126055;27;20045;-77
2022/09/03 11:51:40;;;;;;;5.47;4.30;;;;;;;23.33;49.62;94953.13;5128019;27;20034;-76
2022/09/03 11:54:12;;;;;;;5.70;4.68;;;;;;;23.40;48.83;94955.78;5120402;27;20035;-78
2022/09/03 11:56:37;;;;;;;4.70;3.72;;;;;;;23.33;47.92;94939.06;5140552;27;20540;-78